sensor_id;sensor_type;location;lat;lon;timestamp;pressure;altitude;pressure_sealevel;temperature;humidity
23417;BME280;11881;42.432;25.632;2022-07-22T00:00:22;99127.16;;;24.24;86.32
23417;BME280;11881;42.432;25.632;2022-07-22T00:02:48;99136.72;;;24.15;86.61
23417;BME280;11881;42.432;25.632;2022-07-22T00:05:13;99126.19;;;24.19;86.76
23417;BME280;11881;42.432;25.632;2022-07-22T00:07:39;99129.13;;;24.17;86.83
23417;BME280;11881;42.432;25.632;2022-07-22T00:10:07;99129.09;;;24.05;88.17
23417;BME280;11881;42.432;25.632;2022-07-22T00:12:33;99123.63;;;24.05;87.68
23417;BME280;11881;42.432;25.632;2022-07-22T00:14:58;99130.88;;;24.30;86.71
23417;BME280;11881;42.432;25.632;2022-07-22T00:17:24;99124.78;;;24.28;86.97
23417;BME280;11881;42.432;25.632;2022-07-22T00:19:49;99130.19;;;24.16;87.80
23417;BME280;11881;42.432;25.632;2022-07-22T00:22:15;99128.94;;;24.19;87.38
23417;BME280;11881;42.432;25.632;2022-07-22T00:24:40;99126.16;;;24.07;88.10
23417;BME280;11881;42.432;25.632;2022-07-22T00:27:06;99133.41;;;23.95;88.83
23417;BME280;11881;42.432;25.632;2022-07-22T00:29:31;99125.72;;;23.92;89.38
23417;BME280;11881;42.432;25.632;2022-07-22T00:31:56;99128.81;;;23.95;89.46
23417;BME280;11881;42.432;25.632;2022-07-22T00:34:22;99131.16;;;23.92;89.68
23417;BME280;11881;42.432;25.632;2022-07-22T00:36:47;99130.63;;;24.01;89.60
23417;BME280;11881;42.432;25.632;2022-07-22T00:39:13;99132.00;;;23.92;90.07
23417;BME280;11881;42.432;25.632;2022-07-22T00:41:40;99136.06;;;23.83;91.40
23417;BME280;11881;42.432;25.632;2022-07-22T00:44:07;99130.53;;;24.08;89.54
23417;BME280;11881;42.432;25.632;2022-07-22T00:46:34;99141.81;;;23.93;90.52
23417;BME280;11881;42.432;25.632;2022-07-22T00:49:00;99131.78;;;23.75;91.32
23417;BME280;11881;42.432;25.632;2022-07-22T00:51:27;99127.72;;;23.66;93.12
23417;BME280;11881;42.432;25.632;2022-07-22T00:53:53;99133.19;;;23.59;93.71
23417;BME280;11881;42.432;25.632;2022-07-22T00:56:20;99135.69;;;23.43;94.55
23417;BME280;11881;42.432;25.632;2022-07-22T00:58:47;99126.84;;;23.47;94.41
23417;BME280;11881;42.432;25.632;2022-07-22T01:01:13;99128.28;;;23.50;94.06
23417;BME280;11881;42.432;25.632;2022-07-22T01:03:40;99128.53;;;23.48;93.90
23417;BME280;11881;42.432;25.632;2022-07-22T01:06:06;99125.19;;;23.46;94.26
23417;BME280;11881;42.432;25.632;2022-07-22T01:08:32;99132.19;;;23.54;93.68
23417;BME280;11881;42.432;25.632;2022-07-22T01:13:33;99131.13;;;23.36;95.22
23417;BME280;11881;42.432;25.632;2022-07-22T01:15:58;99132.97;;;23.43;94.60
23417;BME280;11881;42.432;25.632;2022-07-22T01:18:24;99128.88;;;23.52;93.94
23417;BME280;11881;42.432;25.632;2022-07-22T01:20:49;99126.16;;;23.52;94.15
23417;BME280;11881;42.432;25.632;2022-07-22T01:23:14;99133.88;;;23.55;94.58
23417;BME280;11881;42.432;25.632;2022-07-22T01:25:40;99135.38;;;23.32;95.48
23417;BME280;11881;42.432;25.632;2022-07-22T01:28:05;99133.63;;;23.20;96.73
23417;BME280;11881;42.432;25.632;2022-07-22T01:30:31;99138.66;;;23.16;96.73
23417;BME280;11881;42.432;25.632;2022-07-22T01:32:56;99136.94;;;23.22;96.66
23417;BME280;11881;42.432;25.632;2022-07-22T01:35:22;99139.44;;;23.23;96.88
23417;BME280;11881;42.432;25.632;2022-07-22T01:37:47;99134.97;;;23.10;97.50
23417;BME280;11881;42.432;25.632;2022-07-22T01:40:12;99135.50;;;23.19;96.97
23417;BME280;11881;42.432;25.632;2022-07-22T01:42:38;99133.47;;;23.15;97.83
23417;BME280;11881;42.432;25.632;2022-07-22T01:45:04;99138.22;;;23.19;97.34
23417;BME280;11881;42.432;25.632;2022-07-22T01:47:29;99138.66;;;23.16;97.62
23417;BME280;11881;42.432;25.632;2022-07-22T01:49:54;99143.44;;;23.21;97.22
23417;BME280;11881;42.432;25.632;2022-07-22T01:52:20;99142.16;;;23.23;96.74
23417;BME280;11881;42.432;25.632;2022-07-22T01:54:45;99148.22;;;23.25;96.50
23417;BME280;11881;42.432;25.632;2022-07-22T01:57:11;99151.88;;;23.13;97.12
23417;BME280;11881;42.432;25.632;2022-07-22T01:59:36;99144.94;;;23.17;96.50
23417;BME280;11881;42.432;25.632;2022-07-22T02:02:01;99149.88;;;23.26;95.35
23417;BME280;11881;42.432;25.632;2022-07-22T02:04:27;99141.81;;;23.13;96.14
23417;BME280;11881;42.432;25.632;2022-07-22T02:06:52;99142.72;;;23.32;95.64
23417;BME280;11881;42.432;25.632;2022-07-22T02:09:18;99131.59;;;23.52;94.08
23417;BME280;11881;42.432;25.632;2022-07-22T02:11:43;99133.19;;;23.59;93.07
23417;BME280;11881;42.432;25.632;2022-07-22T02:14:08;99134.16;;;23.28;95.44
23417;BME280;11881;42.432;25.632;2022-07-22T02:16:34;99132.09;;;23.24;95.40
23417;BME280;11881;42.432;25.632;2022-07-22T02:18:59;99126.16;;;23.15;96.33
23417;BME280;11881;42.432;25.632;2022-07-22T02:21:25;99133.72;;;23.06;96.82
23417;BME280;11881;42.432;25.632;2022-07-22T02:23:50;99135.72;;;23.18;96.08
23417;BME280;11881;42.432;25.632;2022-07-22T02:26:16;99134.81;;;23.24;95.29
23417;BME280;11881;42.432;25.632;2022-07-22T02:28:41;99136.63;;;23.12;96.35
23417;BME280;11881;42.432;25.632;2022-07-22T02:31:06;99136.28;;;23.01;97.30
23417;BME280;11881;42.432;25.632;2022-07-22T02:33:32;99136.16;;;22.96;97.12
23417;BME280;11881;42.432;25.632;2022-07-22T02:35:57;99133.06;;;22.86;97.77
23417;BME280;11881;42.432;25.632;2022-07-22T02:38:23;99134.28;;;22.90;97.75
23417;BME280;11881;42.432;25.632;2022-07-22T02:40:48;99133.97;;;23.05;96.24
23417;BME280;11881;42.432;25.632;2022-07-22T02:43:14;99127.88;;;23.09;95.71
23417;BME280;11881;42.432;25.632;2022-07-22T02:45:39;99137.50;;;23.05;96.40
23417;BME280;11881;42.432;25.632;2022-07-22T02:48:05;99129.75;;;23.09;95.70
23417;BME280;11881;42.432;25.632;2022-07-22T02:50:30;99138.97;;;23.08;96.15
23417;BME280;11881;42.432;25.632;2022-07-22T02:52:58;99138.34;;;23.06;95.45
23417;BME280;11881;42.432;25.632;2022-07-22T02:55:23;99139.56;;;23.10;94.92
23417;BME280;11881;42.432;25.632;2022-07-22T02:57:48;99134.94;;;22.92;95.65
23417;BME280;11881;42.432;25.632;2022-07-22T03:00:14;99141.78;;;22.95;95.93
23417;BME280;11881;42.432;25.632;2022-07-22T03:02:40;99140.97;;;22.94;95.49
23417;BME280;11881;42.432;25.632;2022-07-22T03:05:06;99144.66;;;22.75;96.84
23417;BME280;11881;42.432;25.632;2022-07-22T03:07:31;99147.59;;;22.73;96.77
23417;BME280;11881;42.432;25.632;2022-07-22T03:09:57;99149.44;;;22.73;96.80
23417;BME280;11881;42.432;25.632;2022-07-22T03:12:22;99147.91;;;22.58;98.17
23417;BME280;11881;42.432;25.632;2022-07-22T03:14:48;99147.13;;;22.51;98.54
23417;BME280;11881;42.432;25.632;2022-07-22T03:17:13;99149.66;;;22.46;98.89
23417;BME280;11881;42.432;25.632;2022-07-22T03:19:39;99149.19;;;22.49;99.08
23417;BME280;11881;42.432;25.632;2022-07-22T03:22:04;99146.28;;;22.51;99.29
23417;BME280;11881;42.432;25.632;2022-07-22T03:24:30;99139.81;;;22.52;98.84
23417;BME280;11881;42.432;25.632;2022-07-22T03:26:55;99148.03;;;22.70;98.01
23417;BME280;11881;42.432;25.632;2022-07-22T03:29:20;99150.97;;;22.69;97.64
23417;BME280;11881;42.432;25.632;2022-07-22T03:31:46;99148.63;;;22.72;97.28
23417;BME280;11881;42.432;25.632;2022-07-22T03:34:11;99146.97;;;22.71;97.75
23417;BME280;11881;42.432;25.632;2022-07-22T03:36:37;99146.03;;;22.84;96.40
23417;BME280;11881;42.432;25.632;2022-07-22T03:39:03;99148.03;;;22.70;97.53
23417;BME280;11881;42.432;25.632;2022-07-22T03:41:28;99141.88;;;22.56;98.45
23417;BME280;11881;42.432;25.632;2022-07-22T03:43:53;99142.88;;;22.62;99.02
23417;BME280;11881;42.432;25.632;2022-07-22T03:46:19;99146.78;;;22.66;99.03
23417;BME280;11881;42.432;25.632;2022-07-22T03:48:44;99147.78;;;22.72;99.02
23417;BME280;11881;42.432;25.632;2022-07-22T03:51:10;99149.44;;;22.73;98.59
23417;BME280;11881;42.432;25.632;2022-07-22T03:53:35;99149.19;;;22.81;98.22
23417;BME280;11881;42.432;25.632;2022-07-22T03:56:01;99154.41;;;22.82;98.23
23417;BME280;11881;42.432;25.632;2022-07-22T03:58:27;99151.66;;;22.89;97.87
23417;BME280;11881;42.432;25.632;2022-07-22T04:00:53;99149.94;;;23.20;95.14
23417;BME280;11881;42.432;25.632;2022-07-22T04:03:19;99156.13;;;23.27;94.44
23417;BME280;11881;42.432;25.632;2022-07-22T04:05:45;99148.81;;;23.27;94.83
23417;BME280;11881;42.432;25.632;2022-07-22T04:08:11;99149.06;;;23.19;95.19
23417;BME280;11881;42.432;25.632;2022-07-22T04:10:37;99147.41;;;23.43;94.42
23417;BME280;11881;42.432;25.632;2022-07-22T04:13:02;99137.78;;;23.41;93.97
23417;BME280;11881;42.432;25.632;2022-07-22T04:15:28;99141.66;;;23.51;93.56
23417;BME280;11881;42.432;25.632;2022-07-22T04:17:53;99137.19;;;23.57;92.68
23417;BME280;11881;42.432;25.632;2022-07-22T04:20:19;99141.84;;;23.75;91.96
23417;BME280;11881;42.432;25.632;2022-07-22T04:22:44;99141.44;;;23.71;92.62
23417;BME280;11881;42.432;25.632;2022-07-22T04:25:09;99145.34;;;23.94;90.96
23417;BME280;11881;42.432;25.632;2022-07-22T04:27:35;99140.44;;;24.02;90.94
23417;BME280;11881;42.432;25.632;2022-07-22T04:30:01;99138.25;;;23.93;91.45
23417;BME280;11881;42.432;25.632;2022-07-22T04:32:26;99136.06;;;24.01;91.24
23417;BME280;11881;42.432;25.632;2022-07-22T04:34:52;99139.06;;;24.11;90.83
23417;BME280;11881;42.432;25.632;2022-07-22T04:37:17;99143.97;;;24.21;90.05
23417;BME280;11881;42.432;25.632;2022-07-22T04:39:43;99146.31;;;24.36;89.40
23417;BME280;11881;42.432;25.632;2022-07-22T04:42:08;99141.63;;;24.25;89.85
23417;BME280;11881;42.432;25.632;2022-07-22T04:44:34;99145.84;;;24.21;90.75
23417;BME280;11881;42.432;25.632;2022-07-22T04:46:59;99148.22;;;24.29;90.88
23417;BME280;11881;42.432;25.632;2022-07-22T04:49:24;99156.78;;;24.62;88.37
23417;BME280;11881;42.432;25.632;2022-07-22T04:51:51;99155.59;;;24.58;88.88
23417;BME280;11881;42.432;25.632;2022-07-22T04:54:17;99153.22;;;24.62;89.43
23417;BME280;11881;42.432;25.632;2022-07-22T04:56:42;99149.94;;;24.72;87.85
23417;BME280;11881;42.432;25.632;2022-07-22T04:59:08;99161.69;;;24.84;86.86
23417;BME280;11881;42.432;25.632;2022-07-22T05:01:33;99156.97;;;24.91;86.49
23417;BME280;11881;42.432;25.632;2022-07-22T05:03:58;99149.50;;;24.98;86.15
23417;BME280;11881;42.432;25.632;2022-07-22T05:06:24;99160.28;;;24.93;86.24
23417;BME280;11881;42.432;25.632;2022-07-22T05:08:49;99146.88;;;24.91;87.35
23417;BME280;11881;42.432;25.632;2022-07-22T05:11:15;99151.63;;;24.96;87.38
23417;BME280;11881;42.432;25.632;2022-07-22T05:13:40;99156.88;;;25.09;86.42
23417;BME280;11881;42.432;25.632;2022-07-22T05:16:06;99152.19;;;25.16;85.67
23417;BME280;11881;42.432;25.632;2022-07-22T05:18:32;99150.59;;;25.44;84.29
23417;BME280;11881;42.432;25.632;2022-07-22T05:20:59;99152.13;;;25.63;83.27
23417;BME280;11881;42.432;25.632;2022-07-22T05:23:25;99158.75;;;25.79;82.17
23417;BME280;11881;42.432;25.632;2022-07-22T05:25:50;99158.25;;;25.94;80.37
23417;BME280;11881;42.432;25.632;2022-07-22T05:28:15;99154.22;;;25.73;82.40
23417;BME280;11881;42.432;25.632;2022-07-22T05:30:41;99158.19;;;25.77;82.32
23417;BME280;11881;42.432;25.632;2022-07-22T05:33:06;99157.44;;;25.93;80.32
23417;BME280;11881;42.432;25.632;2022-07-22T05:35:32;99156.28;;;26.18;78.51
23417;BME280;11881;42.432;25.632;2022-07-22T05:37:57;99155.06;;;26.25;78.17
23417;BME280;11881;42.432;25.632;2022-07-22T05:40:23;99160.97;;;26.34;77.54
23417;BME280;11881;42.432;25.632;2022-07-22T05:42:48;99163.56;;;26.41;77.72
23417;BME280;11881;42.432;25.632;2022-07-22T05:45:14;99153.22;;;26.43;77.77
23417;BME280;11881;42.432;25.632;2022-07-22T05:47:39;99160.44;;;26.49;78.06
23417;BME280;11881;42.432;25.632;2022-07-22T05:50:05;99156.31;;;26.46;78.21
23417;BME280;11881;42.432;25.632;2022-07-22T05:52:30;99152.75;;;26.46;78.28
23417;BME280;11881;42.432;25.632;2022-07-22T05:54:59;99153.16;;;26.55;78.85
23417;BME280;11881;42.432;25.632;2022-07-22T05:57:24;99160.91;;;26.74;76.31
23417;BME280;11881;42.432;25.632;2022-07-22T05:59:50;99153.84;;;26.78;75.58
23417;BME280;11881;42.432;25.632;2022-07-22T06:02:15;99160.28;;;26.56;76.12
23417;BME280;11881;42.432;25.632;2022-07-22T06:04:41;99162.03;;;26.33;77.49
23417;BME280;11881;42.432;25.632;2022-07-22T06:07:06;99157.78;;;26.54;77.12
23417;BME280;11881;42.432;25.632;2022-07-22T06:09:31;99155.00;;;26.37;77.89
23417;BME280;11881;42.432;25.632;2022-07-22T06:11:57;99160.69;;;26.47;76.85
23417;BME280;11881;42.432;25.632;2022-07-22T06:14:22;99160.69;;;26.47;77.88
23417;BME280;11881;42.432;25.632;2022-07-22T06:16:48;99161.88;;;26.51;74.31
23417;BME280;11881;42.432;25.632;2022-07-22T06:19:14;99150.00;;;26.46;74.15
23417;BME280;11881;42.432;25.632;2022-07-22T06:21:40;99157.28;;;26.86;72.11
23417;BME280;11881;42.432;25.632;2022-07-22T06:24:05;99149.91;;;27.03;72.87
23417;BME280;11881;42.432;25.632;2022-07-22T06:26:31;99146.50;;;27.13;73.06
23417;BME280;11881;42.432;25.632;2022-07-22T06:28:56;99141.44;;;27.38;72.00
23417;BME280;11881;42.432;25.632;2022-07-22T06:31:22;99139.56;;;27.61;69.86
23417;BME280;11881;42.432;25.632;2022-07-22T06:33:47;99140.34;;;27.78;68.33
23417;BME280;11881;42.432;25.632;2022-07-22T06:36:12;99147.34;;;27.52;70.82
23417;BME280;11881;42.432;25.632;2022-07-22T06:38:39;99143.13;;;27.61;70.28
23417;BME280;11881;42.432;25.632;2022-07-22T06:41:04;99151.81;;;27.58;69.69
23417;BME280;11881;42.432;25.632;2022-07-22T06:43:30;99139.84;;;27.81;67.81
23417;BME280;11881;42.432;25.632;2022-07-22T06:45:55;99140.59;;;27.76;68.48
23417;BME280;11881;42.432;25.632;2022-07-22T06:48:21;99138.69;;;27.77;68.79
23417;BME280;11881;42.432;25.632;2022-07-22T06:50:47;99140.53;;;27.93;67.93
23417;BME280;11881;42.432;25.632;2022-07-22T06:53:12;99137.03;;;27.98;68.43
23417;BME280;11881;42.432;25.632;2022-07-22T06:55:38;99145.63;;;27.84;68.98
23417;BME280;11881;42.432;25.632;2022-07-22T06:58:04;99139.06;;;27.86;68.44
23417;BME280;11881;42.432;25.632;2022-07-22T07:00:29;99143.00;;;28.17;67.18
23417;BME280;11881;42.432;25.632;2022-07-22T07:02:58;99140.44;;;28.32;66.43
23417;BME280;11881;42.432;25.632;2022-07-22T07:05:24;99136.25;;;28.24;67.65
23417;BME280;11881;42.432;25.632;2022-07-22T07:07:50;99139.25;;;28.50;65.63
23417;BME280;11881;42.432;25.632;2022-07-22T07:10:15;99136.19;;;28.46;65.23
23417;BME280;11881;42.432;25.632;2022-07-22T07:12:41;99137.63;;;28.27;66.98
23417;BME280;11881;42.432;25.632;2022-07-22T07:15:06;99133.28;;;28.53;66.35
23417;BME280;11881;42.432;25.632;2022-07-22T07:17:32;99141.34;;;28.70;66.68
23417;BME280;11881;42.432;25.632;2022-07-22T07:19:57;99133.41;;;28.68;65.73
23417;BME280;11881;42.432;25.632;2022-07-22T07:22:23;99145.19;;;28.69;65.33
23417;BME280;11881;42.432;25.632;2022-07-22T07:24:48;99143.91;;;28.49;66.61
23417;BME280;11881;42.432;25.632;2022-07-22T07:27:14;99143.47;;;28.08;68.41
23417;BME280;11881;42.432;25.632;2022-07-22T07:29:39;99147.16;;;28.46;67.85
23417;BME280;11881;42.432;25.632;2022-07-22T07:32:05;99143.59;;;28.73;66.69
23417;BME280;11881;42.432;25.632;2022-07-22T07:34:30;99146.47;;;28.88;67.00
23417;BME280;11881;42.432;25.632;2022-07-22T07:36:55;99143.72;;;29.20;66.39
23417;BME280;11881;42.432;25.632;2022-07-22T07:39:23;99146.28;;;29.37;64.81
23417;BME280;11881;42.432;25.632;2022-07-22T07:41:48;99146.31;;;29.42;63.72
23417;BME280;11881;42.432;25.632;2022-07-22T07:44:14;99144.72;;;29.51;62.75
23417;BME280;11881;42.432;25.632;2022-07-22T07:46:39;99145.59;;;29.57;63.42
23417;BME280;11881;42.432;25.632;2022-07-22T07:49:04;99148.00;;;29.48;64.64
23417;BME280;11881;42.432;25.632;2022-07-22T07:51:30;99145.81;;;29.50;63.99
23417;BME280;11881;42.432;25.632;2022-07-22T07:53:55;99147.06;;;29.70;63.35
23417;BME280;11881;42.432;25.632;2022-07-22T07:56:21;99146.00;;;29.76;62.92
23417;BME280;11881;42.432;25.632;2022-07-22T07:58:46;99142.78;;;29.94;62.38
23417;BME280;11881;42.432;25.632;2022-07-22T08:01:11;99150.94;;;29.79;63.87
23417;BME280;11881;42.432;25.632;2022-07-22T08:03:37;99142.47;;;29.90;62.35
23417;BME280;11881;42.432;25.632;2022-07-22T08:06:03;99142.22;;;29.92;62.62
23417;BME280;11881;42.432;25.632;2022-07-22T08:08:28;99151.63;;;29.54;63.30
23417;BME280;11881;42.432;25.632;2022-07-22T08:10:54;99155.28;;;29.64;63.49
23417;BME280;11881;42.432;25.632;2022-07-22T08:13:19;99140.59;;;30.01;62.97
23417;BME280;11881;42.432;25.632;2022-07-22T08:15:45;99136.56;;;30.19;60.57
23417;BME280;11881;42.432;25.632;2022-07-22T08:18:10;99137.34;;;30.14;61.08
23417;BME280;11881;42.432;25.632;2022-07-22T08:20:36;99135.53;;;30.45;60.16
23417;BME280;11881;42.432;25.632;2022-07-22T08:23:01;99120.94;;;30.45;58.42
23417;BME280;11881;42.432;25.632;2022-07-22T08:25:27;99132.47;;;30.42;59.22
23417;BME280;11881;42.432;25.632;2022-07-22T08:27:52;99125.38;;;30.71;58.21
23417;BME280;11881;42.432;25.632;2022-07-22T08:30:18;99125.66;;;30.90;56.46
23417;BME280;11881;42.432;25.632;2022-07-22T08:32:45;99126.50;;;30.86;57.83
23417;BME280;11881;42.432;25.632;2022-07-22T08:35:10;99126.47;;;30.96;57.58
23417;BME280;11881;42.432;25.632;2022-07-22T08:37:36;99125.94;;;30.99;58.58
23417;BME280;11881;42.432;25.632;2022-07-22T08:40:03;99116.28;;;31.17;57.37
23417;BME280;11881;42.432;25.632;2022-07-22T08:42:29;99114.59;;;31.36;56.58
23417;BME280;11881;42.432;25.632;2022-07-22T08:44:55;99117.34;;;31.41;55.31
23417;BME280;11881;42.432;25.632;2022-07-22T08:47:22;99125.31;;;31.53;56.08
23417;BME280;11881;42.432;25.632;2022-07-22T08:49:48;99122.38;;;31.04;55.90
23417;BME280;11881;42.432;25.632;2022-07-22T08:52:14;99116.28;;;31.22;56.48
23417;BME280;11881;42.432;25.632;2022-07-22T08:54:39;99111.84;;;31.41;54.95
23417;BME280;11881;42.432;25.632;2022-07-22T08:57:05;99124.78;;;31.51;54.70
23417;BME280;11881;42.432;25.632;2022-07-22T08:59:30;99115.41;;;31.52;54.39
23417;BME280;11881;42.432;25.632;2022-07-22T09:02:07;99115.19;;;31.28;54.92
23417;BME280;11881;42.432;25.632;2022-07-22T09:04:52;99114.84;;;31.60;54.20
23417;BME280;11881;42.432;25.632;2022-07-22T09:09:50;99107.03;;;31.88;52.89
23417;BME280;11881;42.432;25.632;2022-07-22T09:12:16;99106.13;;;32.02;53.12
23417;BME280;11881;42.432;25.632;2022-07-22T09:14:46;99109.47;;;31.94;53.68
23417;BME280;11881;42.432;25.632;2022-07-22T09:19:50;99115.59;;;31.76;54.82
23417;BME280;11881;42.432;25.632;2022-07-22T09:22:30;99112.22;;;31.94;51.77
23417;BME280;11881;42.432;25.632;2022-07-22T09:24:56;99105.50;;;32.16;51.39
23417;BME280;11881;42.432;25.632;2022-07-22T09:27:25;99108.50;;;32.24;50.97
23417;BME280;11881;42.432;25.632;2022-07-22T09:29:51;99113.81;;;32.05;50.96
23417;BME280;11881;42.432;25.632;2022-07-22T09:32:18;99106.13;;;32.02;51.64
23417;BME280;11881;42.432;25.632;2022-07-22T09:34:43;99097.13;;;32.31;49.83
23417;BME280;11881;42.432;25.632;2022-07-22T09:37:08;99092.56;;;32.55;49.53
23417;BME280;11881;42.432;25.632;2022-07-22T09:39:34;99098.75;;;32.76;49.96
23417;BME280;11881;42.432;25.632;2022-07-22T09:42:05;99089.88;;;32.79;49.64
23417;BME280;11881;42.432;25.632;2022-07-22T09:44:33;99087.81;;;33.00;47.49
23417;BME280;11881;42.432;25.632;2022-07-22T09:46:59;99087.91;;;32.85;48.19
23417;BME280;11881;42.432;25.632;2022-07-22T09:49:35;99085.44;;;32.83;49.12
23417;BME280;11881;42.432;25.632;2022-07-22T09:52:03;99085.88;;;33.01;47.02
23417;BME280;11881;42.432;25.632;2022-07-22T09:54:29;99086.78;;;32.86;46.32
23417;BME280;11881;42.432;25.632;2022-07-22T09:56:55;99082.81;;;32.68;48.02
23417;BME280;11881;42.432;25.632;2022-07-22T09:59:21;99078.44;;;32.96;47.41
23417;BME280;11881;42.432;25.632;2022-07-22T10:01:47;99082.38;;;32.90;47.48
23417;BME280;11881;42.432;25.632;2022-07-22T10:04:15;99077.19;;;33.13;47.89
23417;BME280;11881;42.432;25.632;2022-07-22T10:06:43;99074.09;;;33.43;47.03
23417;BME280;11881;42.432;25.632;2022-07-22T10:09:11;99071.75;;;33.55;45.35
23417;BME280;11881;42.432;25.632;2022-07-22T10:11:37;99070.16;;;33.49;44.75
23417;BME280;11881;42.432;25.632;2022-07-22T10:14:04;99061.56;;;33.51;45.05
23417;BME280;11881;42.432;25.632;2022-07-22T10:16:30;99068.09;;;33.60;43.37
23417;BME280;11881;42.432;25.632;2022-07-22T10:18:55;99065.00;;;33.43;43.93
23417;BME280;11881;42.432;25.632;2022-07-22T10:21:31;99066.47;;;33.59;43.56
23417;BME280;11881;42.432;25.632;2022-07-22T10:24:07;99068.88;;;33.84;44.07
23417;BME280;11881;42.432;25.632;2022-07-22T10:26:50;99057.00;;;33.84;42.32
23417;BME280;11881;42.432;25.632;2022-07-22T10:32:31;99046.72;;;34.08;43.60
23417;BME280;11881;42.432;25.632;2022-07-22T10:40:19;99038.09;;;33.91;42.36
23417;BME280;11881;42.432;25.632;2022-07-22T10:45:28;99051.81;;;34.39;41.46
23417;BME280;11881;42.432;25.632;2022-07-22T10:47:56;99050.06;;;34.62;41.12
23417;BME280;11881;42.432;25.632;2022-07-22T10:53:04;99039.84;;;34.25;40.26
23417;BME280;11881;42.432;25.632;2022-07-22T10:55:30;99042.78;;;34.33;41.47
23417;BME280;11881;42.432;25.632;2022-07-22T10:57:56;99039.28;;;34.60;40.80
23417;BME280;11881;42.432;25.632;2022-07-22T11:00:21;99031.81;;;34.93;37.92
23417;BME280;11881;42.432;25.632;2022-07-22T11:02:47;99035.81;;;35.01;37.58
23417;BME280;11881;42.432;25.632;2022-07-22T11:05:13;99034.69;;;35.30;36.22
23417;BME280;11881;42.432;25.632;2022-07-22T11:07:46;99022.19;;;35.18;36.74
23417;BME280;11881;42.432;25.632;2022-07-22T11:10:14;99031.00;;;34.93;36.34
23417;BME280;11881;42.432;25.632;2022-07-22T11:12:40;99022.78;;;34.55;37.40
23417;BME280;11881;42.432;25.632;2022-07-22T11:15:06;99024.59;;;34.46;37.86
23417;BME280;11881;42.432;25.632;2022-07-22T11:17:33;99015.47;;;34.27;38.17
23417;BME280;11881;42.432;25.632;2022-07-22T11:20:09;99026.28;;;34.42;37.46
23417;BME280;11881;42.432;25.632;2022-07-22T11:22:35;99028.13;;;34.65;35.66
23417;BME280;11881;42.432;25.632;2022-07-22T11:25:04;99020.56;;;35.04;33.27
23417;BME280;11881;42.432;25.632;2022-07-22T11:27:30;99019.00;;;35.39;31.37
23417;BME280;11881;42.432;25.632;2022-07-22T11:29:55;99025.00;;;35.46;28.63
23417;BME280;11881;42.432;25.632;2022-07-22T11:32:24;99005.03;;;35.71;29.58
23417;BME280;11881;42.432;25.632;2022-07-22T11:34:50;99010.97;;;35.79;28.28
23417;BME280;11881;42.432;25.632;2022-07-22T11:37:20;99011.78;;;35.93;28.53
23417;BME280;11881;42.432;25.632;2022-07-22T11:39:48;99015.97;;;36.04;28.42
23417;BME280;11881;42.432;25.632;2022-07-22T11:42:14;99008.78;;;36.03;27.74
23417;BME280;11881;42.432;25.632;2022-07-22T11:44:39;99008.16;;;36.29;26.54
23417;BME280;11881;42.432;25.632;2022-07-22T11:47:06;99010.59;;;36.44;26.33
23417;BME280;11881;42.432;25.632;2022-07-22T11:49:33;99007.41;;;36.37;27.07
23417;BME280;11881;42.432;25.632;2022-07-22T11:52:01;99006.59;;;36.36;25.58
23417;BME280;11881;42.432;25.632;2022-07-22T11:54:27;99005.03;;;36.44;26.34
23417;BME280;11881;42.432;25.632;2022-07-22T11:56:53;99005.41;;;36.51;25.99
23417;BME280;11881;42.432;25.632;2022-07-22T11:59:19;99007.25;;;36.64;26.83
23417;BME280;11881;42.432;25.632;2022-07-22T12:01:46;99007.81;;;36.75;26.36
23417;BME280;11881;42.432;25.632;2022-07-22T12:04:23;99002.00;;;36.54;26.51
23417;BME280;11881;42.432;25.632;2022-07-22T12:06:49;99003.75;;;36.28;27.29
23417;BME280;11881;42.432;25.632;2022-07-22T12:09:20;98992.84;;;36.31;28.47
23417;BME280;11881;42.432;25.632;2022-07-22T12:11:48;98992.91;;;36.62;27.48
23417;BME280;11881;42.432;25.632;2022-07-22T12:14:20;99000.97;;;36.72;27.70
23417;BME280;11881;42.432;25.632;2022-07-22T12:19:22;98990.88;;;36.85;26.94
23417;BME280;11881;42.432;25.632;2022-07-22T12:22:03;98988.69;;;36.96;27.04
23417;BME280;11881;42.432;25.632;2022-07-22T12:24:34;98991.84;;;36.81;26.43
23417;BME280;11881;42.432;25.632;2022-07-22T12:27:11;98988.28;;;36.58;26.92
23417;BME280;11881;42.432;25.632;2022-07-22T12:32:06;98988.13;;;36.54;27.66
23417;BME280;11881;42.432;25.632;2022-07-22T12:37:01;98985.81;;;36.34;27.65
23417;BME280;11881;42.432;25.632;2022-07-22T12:39:36;98991.44;;;36.20;28.42
23417;BME280;11881;42.432;25.632;2022-07-22T12:42:01;98986.47;;;36.31;28.60
23417;BME280;11881;42.432;25.632;2022-07-22T12:44:27;98987.94;;;36.50;28.55
23417;BME280;11881;42.432;25.632;2022-07-22T12:46:55;98977.59;;;36.73;27.40
23417;BME280;11881;42.432;25.632;2022-07-22T12:49:23;98985.28;;;36.45;27.63
23417;BME280;11881;42.432;25.632;2022-07-22T12:52:12;98984.06;;;36.60;27.89
23417;BME280;11881;42.432;25.632;2022-07-22T12:54:40;98982.69;;;36.49;28.33
23417;BME280;11881;42.432;25.632;2022-07-22T12:57:07;98988.75;;;36.51;27.68
23417;BME280;11881;42.432;25.632;2022-07-22T12:59:33;98986.84;;;36.60;27.92
23417;BME280;11881;42.432;25.632;2022-07-22T13:01:58;98986.41;;;36.44;28.14
23417;BME280;11881;42.432;25.632;2022-07-22T13:04:24;98978.88;;;36.00;27.50
23417;BME280;11881;42.432;25.632;2022-07-22T13:06:50;98982.31;;;36.19;27.90
23417;BME280;11881;42.432;25.632;2022-07-22T13:09:15;98988.22;;;36.27;27.19
23417;BME280;11881;42.432;25.632;2022-07-22T13:11:41;98987.84;;;35.97;27.01
23417;BME280;11881;42.432;25.632;2022-07-22T13:14:13;98993.00;;;36.12;27.67